sensor_id;sensor_type;location;lat;lon;timestamp;P1;durP1;ratioP1;P2;durP2;ratioP2
22969;SDS011;11651;52.136;5.572;2022-07-12T00:01:07;2.53;;;2.25;;
22969;SDS011;11651;52.136;5.572;2022-07-12T00:03:33;2.20;;;2.00;;
22969;SDS011;11651;52.136;5.572;2022-07-12T00:05:59;2.28;;;2.10;;
22969;SDS011;11651;52.136;5.572;2022-07-12T00:08:26;2.17;;;2.00;;
22969;SDS011;11651;52.136;5.572;2022-07-12T00:10:52;2.70;;;2.40;;
22969;SDS011;11651;52.136;5.572;2022-07-12T00:13:17;2.70;;;2.45;;
22969;SDS011;11651;52.136;5.572;2022-07-12T00:15:43;2.78;;;2.42;;
22969;SDS011;11651;52.136;5.572;2022-07-12T00:18:09;2.90;;;2.50;;
22969;SDS011;11651;52.136;5.572;2022-07-12T00:20:35;3.40;;;2.70;;
22969;SDS011;11651;52.136;5.572;2022-07-12T00:23:01;3.28;;;2.80;;
22969;SDS011;11651;52.136;5.572;2022-07-12T00:25:27;2.60;;;2.38;;
22969;SDS011;11651;52.136;5.572;2022-07-12T00:27:53;3.10;;;2.60;;
22969;SDS011;11651;52.136;5.572;2022-07-12T00:30:18;2.70;;;2.50;;
22969;SDS011;11651;52.136;5.572;2022-07-12T00:32:44;2.72;;;2.53;;
22969;SDS011;11651;52.136;5.572;2022-07-12T00:35:10;3.20;;;2.83;;
22969;SDS011;11651;52.136;5.572;2022-07-12T00:37:36;3.45;;;2.70;;
22969;SDS011;11651;52.136;5.572;2022-07-12T00:40:04;2.50;;;2.30;;
22969;SDS011;11651;52.136;5.572;2022-07-12T00:42:31;2.63;;;2.42;;
22969;SDS011;11651;52.136;5.572;2022-07-12T00:44:57;2.80;;;2.60;;
22969;SDS011;11651;52.136;5.572;2022-07-12T00:47:40;3.97;;;3.20;;
22969;SDS011;11651;52.136;5.572;2022-07-12T00:50:10;3.47;;;2.83;;
22969;SDS011;11651;52.136;5.572;2022-07-12T00:52:41;3.58;;;2.97;;
22969;SDS011;11651;52.136;5.572;2022-07-12T00:55:08;3.20;;;2.88;;
22969;SDS011;11651;52.136;5.572;2022-07-12T00:57:35;3.78;;;3.30;;
22969;SDS011;11651;52.136;5.572;2022-07-12T01:00:03;3.25;;;2.95;;
22969;SDS011;11651;52.136;5.572;2022-07-12T01:02:31;3.30;;;3.10;;
22969;SDS011;11651;52.136;5.572;2022-07-12T01:04:57;2.88;;;2.67;;
22969;SDS011;11651;52.136;5.572;2022-07-12T01:07:24;3.60;;;3.10;;
22969;SDS011;11651;52.136;5.572;2022-07-12T01:09:51;3.38;;;3.17;;
22969;SDS011;11651;52.136;5.572;2022-07-12T01:12:20;3.08;;;2.88;;
22969;SDS011;11651;52.136;5.572;2022-07-12T01:14:46;3.20;;;3.00;;
22969;SDS011;11651;52.136;5.572;2022-07-12T01:17:14;3.00;;;2.80;;
22969;SDS011;11651;52.136;5.572;2022-07-12T01:19:39;5.57;;;3.25;;
22969;SDS011;11651;52.136;5.572;2022-07-12T01:22:06;3.75;;;3.47;;
22969;SDS011;11651;52.136;5.572;2022-07-12T01:24:35;3.80;;;3.30;;
22969;SDS011;11651;52.136;5.572;2022-07-12T01:27:02;3.70;;;3.40;;
22969;SDS011;11651;52.136;5.572;2022-07-12T01:29:29;3.65;;;2.83;;
22969;SDS011;11651;52.136;5.572;2022-07-12T01:31:56;3.20;;;3.00;;
22969;SDS011;11651;52.136;5.572;2022-07-12T01:34:45;3.42;;;3.13;;
22969;SDS011;11651;52.136;5.572;2022-07-12T01:37:12;3.75;;;3.45;;
22969;SDS011;11651;52.136;5.572;2022-07-12T01:39:39;3.05;;;2.85;;
22969;SDS011;11651;52.136;5.572;2022-07-12T01:42:05;3.08;;;2.88;;
22969;SDS011;11651;52.136;5.572;2022-07-12T01:44:31;3.22;;;2.92;;
22969;SDS011;11651;52.136;5.572;2022-07-12T01:46:57;3.22;;;3.00;;
22969;SDS011;11651;52.136;5.572;2022-07-12T01:49:23;3.08;;;2.85;;
22969;SDS011;11651;52.136;5.572;2022-07-12T01:51:49;3.15;;;2.95;;
22969;SDS011;11651;52.136;5.572;2022-07-12T01:54:14;2.83;;;2.63;;
22969;SDS011;11651;52.136;5.572;2022-07-12T01:56:40;3.10;;;2.90;;
22969;SDS011;11651;52.136;5.572;2022-07-12T01:59:06;3.17;;;2.97;;
22969;SDS011;11651;52.136;5.572;2022-07-12T02:01:32;3.28;;;2.90;;
22969;SDS011;11651;52.136;5.572;2022-07-12T02:04:01;3.42;;;3.13;;
22969;SDS011;11651;52.136;5.572;2022-07-12T02:06:30;5.20;;;3.20;;
22969;SDS011;11651;52.136;5.572;2022-07-12T02:08:57;3.05;;;2.85;;
22969;SDS011;11651;52.136;5.572;2022-07-12T02:11:23;3.50;;;3.20;;
22969;SDS011;11651;52.136;5.572;2022-07-12T02:13:49;3.63;;;3.33;;
22969;SDS011;11651;52.136;5.572;2022-07-12T02:16:15;3.70;;;3.25;;
22969;SDS011;11651;52.136;5.572;2022-07-12T02:18:41;3.30;;;3.00;;
22969;SDS011;11651;52.136;5.572;2022-07-12T02:21:06;2.90;;;2.70;;
22969;SDS011;11651;52.136;5.572;2022-07-12T02:23:32;3.65;;;3.15;;
22969;SDS011;11651;52.136;5.572;2022-07-12T02:25:58;3.40;;;3.10;;
22969;SDS011;11651;52.136;5.572;2022-07-12T02:28:24;3.10;;;2.88;;
22969;SDS011;11651;52.136;5.572;2022-07-12T02:30:49;3.13;;;2.88;;
22969;SDS011;11651;52.136;5.572;2022-07-12T02:33:15;3.63;;;3.33;;
22969;SDS011;11651;52.136;5.572;2022-07-12T02:35:41;3.38;;;3.08;;
22969;SDS011;11651;52.136;5.572;2022-07-12T02:38:07;3.95;;;2.70;;
22969;SDS011;11651;52.136;5.572;2022-07-12T02:40:33;3.50;;;3.20;;
22969;SDS011;11651;52.136;5.572;2022-07-12T02:43:17;3.22;;;2.70;;
22969;SDS011;11651;52.136;5.572;2022-07-12T02:45:43;3.35;;;3.15;;
22969;SDS011;11651;52.136;5.572;2022-07-12T02:48:08;3.83;;;3.53;;
22969;SDS011;11651;52.136;5.572;2022-07-12T02:50:35;4.35;;;3.60;;
22969;SDS011;11651;52.136;5.572;2022-07-12T02:53:03;4.35;;;3.60;;
22969;SDS011;11651;52.136;5.572;2022-07-12T02:55:30;4.00;;;3.60;;
22969;SDS011;11651;52.136;5.572;2022-07-12T02:57:56;4.00;;;3.65;;
22969;SDS011;11651;52.136;5.572;2022-07-12T03:00:21;4.22;;;3.42;;
22969;SDS011;11651;52.136;5.572;2022-07-12T03:02:47;3.55;;;3.35;;
22969;SDS011;11651;52.136;5.572;2022-07-12T03:05:12;4.50;;;3.80;;
22969;SDS011;11651;52.136;5.572;2022-07-12T03:07:38;4.05;;;3.30;;
22969;SDS011;11651;52.136;5.572;2022-07-12T03:10:04;4.85;;;3.75;;
22969;SDS011;11651;52.136;5.572;2022-07-12T03:12:30;4.88;;;3.70;;
22969;SDS011;11651;52.136;5.572;2022-07-12T03:14:55;4.18;;;3.70;;
22969;SDS011;11651;52.136;5.572;2022-07-12T03:17:21;3.95;;;3.63;;
22969;SDS011;11651;52.136;5.572;2022-07-12T03:19:47;3.70;;;3.35;;
22969;SDS011;11651;52.136;5.572;2022-07-12T03:22:12;4.30;;;3.90;;
22969;SDS011;11651;52.136;5.572;2022-07-12T03:24:38;4.82;;;4.05;;
22969;SDS011;11651;52.136;5.572;2022-07-12T03:27:03;4.30;;;4.00;;
22969;SDS011;11651;52.136;5.572;2022-07-12T03:29:29;4.20;;;3.90;;
22969;SDS011;11651;52.136;5.572;2022-07-12T03:31:55;5.03;;;3.95;;
22969;SDS011;11651;52.136;5.572;2022-07-12T03:34:20;4.72;;;4.25;;
22969;SDS011;11651;52.136;5.572;2022-07-12T03:36:46;4.38;;;4.03;;
22969;SDS011;11651;52.136;5.572;2022-07-12T03:39:11;4.97;;;3.83;;
22969;SDS011;11651;52.136;5.572;2022-07-12T03:41:37;4.35;;;3.97;;
22969;SDS011;11651;52.136;5.572;2022-07-12T03:44:02;3.70;;;3.40;;
22969;SDS011;11651;52.136;5.572;2022-07-12T03:46:28;4.45;;;4.15;;
22969;SDS011;11651;52.136;5.572;2022-07-12T03:48:54;4.53;;;3.75;;
22969;SDS011;11651;52.136;5.572;2022-07-12T03:51:20;4.35;;;4.05;;
22969;SDS011;11651;52.136;5.572;2022-07-12T03:53:45;3.85;;;3.63;;
22969;SDS011;11651;52.136;5.572;2022-07-12T03:56:11;5.00;;;4.63;;
22969;SDS011;11651;52.136;5.572;2022-07-12T03:58:56;5.35;;;4.68;;
22969;SDS011;11651;52.136;5.572;2022-07-12T04:01:22;5.20;;;4.70;;
22969;SDS011;11651;52.136;5.572;2022-07-12T04:03:47;4.82;;;4.43;;
22969;SDS011;11651;52.136;5.572;2022-07-12T04:06:13;4.18;;;3.88;;
22969;SDS011;11651;52.136;5.572;2022-07-12T04:08:38;4.55;;;4.25;;
22969;SDS011;11651;52.136;5.572;2022-07-12T04:11:05;4.78;;;4.47;;
22969;SDS011;11651;52.136;5.572;2022-07-12T04:13:30;3.97;;;3.70;;
22969;SDS011;11651;52.136;5.572;2022-07-12T04:15:57;4.53;;;4.22;;
22969;SDS011;11651;52.136;5.572;2022-07-12T04:18:23;5.57;;;5.13;;
22969;SDS011;11651;52.136;5.572;2022-07-12T04:20:49;5.10;;;4.65;;
22969;SDS011;11651;52.136;5.572;2022-07-12T04:23:14;5.10;;;4.55;;
22969;SDS011;11651;52.136;5.572;2022-07-12T04:25:40;4.32;;;4.03;;
22969;SDS011;11651;52.136;5.572;2022-07-12T04:28:06;4.38;;;4.05;;
22969;SDS011;11651;52.136;5.572;2022-07-12T04:30:31;3.90;;;3.60;;
22969;SDS011;11651;52.136;5.572;2022-07-12T04:32:57;4.38;;;3.97;;
22969;SDS011;11651;52.136;5.572;2022-07-12T04:35:22;4.20;;;3.72;;
22969;SDS011;11651;52.136;5.572;2022-07-12T04:37:48;4.80;;;4.40;;
22969;SDS011;11651;52.136;5.572;2022-07-12T04:40:13;3.72;;;3.50;;
22969;SDS011;11651;52.136;5.572;2022-07-12T04:42:39;5.65;;;4.30;;
22969;SDS011;11651;52.136;5.572;2022-07-12T04:45:04;5.32;;;4.43;;
22969;SDS011;11651;52.136;5.572;2022-07-12T04:47:30;4.63;;;4.32;;
22969;SDS011;11651;52.136;5.572;2022-07-12T04:49:56;4.95;;;4.45;;
22969;SDS011;11651;52.136;5.572;2022-07-12T04:52:21;4.28;;;3.83;;
22969;SDS011;11651;52.136;5.572;2022-07-12T04:54:47;3.65;;;3.35;;
22969;SDS011;11651;52.136;5.572;2022-07-12T04:57:13;3.78;;;3.47;;
22969;SDS011;11651;52.136;5.572;2022-07-12T04:59:38;5.50;;;5.10;;
22969;SDS011;11651;52.136;5.572;2022-07-12T05:02:04;7.03;;;5.78;;
22969;SDS011;11651;52.136;5.572;2022-07-12T05:04:33;5.65;;;5.15;;
22969;SDS011;11651;52.136;5.572;2022-07-12T05:06:59;5.35;;;4.95;;
22969;SDS011;11651;52.136;5.572;2022-07-12T05:09:24;6.68;;;6.00;;
22969;SDS011;11651;52.136;5.572;2022-07-12T05:11:49;6.88;;;6.22;;
22969;SDS011;11651;52.136;5.572;2022-07-12T05:14:15;6.28;;;5.78;;
22969;SDS011;11651;52.136;5.572;2022-07-12T05:16:41;6.88;;;6.30;;
22969;SDS011;11651;52.136;5.572;2022-07-12T05:19:07;7.90;;;7.20;;
22969;SDS011;11651;52.136;5.572;2022-07-12T05:21:32;7.20;;;6.60;;
22969;SDS011;11651;52.136;5.572;2022-07-12T05:23:59;8.32;;;7.63;;
22969;SDS011;11651;52.136;5.572;2022-07-12T05:26:26;8.90;;;8.10;;
22969;SDS011;11651;52.136;5.572;2022-07-12T05:28:51;9.57;;;8.77;;
22969;SDS011;11651;52.136;5.572;2022-07-12T05:31:17;14.52;;;10.10;;
22969;SDS011;11651;52.136;5.572;2022-07-12T05:33:43;9.82;;;8.93;;
22969;SDS011;11651;52.136;5.572;2022-07-12T05:36:09;10.43;;;9.43;;
22969;SDS011;11651;52.136;5.572;2022-07-12T05:38:35;10.43;;;9.52;;
22969;SDS011;11651;52.136;5.572;2022-07-12T05:41:00;10.93;;;10.02;;
22969;SDS011;11651;52.136;5.572;2022-07-12T05:43:26;10.35;;;9.45;;
22969;SDS011;11651;52.136;5.572;2022-07-12T05:45:51;11.48;;;10.30;;
22969;SDS011;11651;52.136;5.572;2022-07-12T05:48:17;10.40;;;9.57;;
22969;SDS011;11651;52.136;5.572;2022-07-12T05:50:43;10.63;;;9.70;;
22969;SDS011;11651;52.136;5.572;2022-07-12T05:53:08;10.98;;;9.75;;
22969;SDS011;11651;52.136;5.572;2022-07-12T05:55:50;10.10;;;9.20;;
22969;SDS011;11651;52.136;5.572;2022-07-12T05:58:17;8.68;;;7.95;;
22969;SDS011;11651;52.136;5.572;2022-07-12T06:00:43;13.23;;;9.00;;
22969;SDS011;11651;52.136;5.572;2022-07-12T06:03:09;8.70;;;7.90;;
22969;SDS011;11651;52.136;5.572;2022-07-12T06:05:35;10.18;;;7.63;;
22969;SDS011;11651;52.136;5.572;2022-07-12T06:08:01;7.32;;;6.47;;
22969;SDS011;11651;52.136;5.572;2022-07-12T06:10:27;7.18;;;6.53;;
22969;SDS011;11651;52.136;5.572;2022-07-12T06:12:52;7.82;;;5.97;;
22969;SDS011;11651;52.136;5.572;2022-07-12T06:15:18;7.28;;;6.00;;
22969;SDS011;11651;52.136;5.572;2022-07-12T06:17:44;12.23;;;6.93;;
22969;SDS011;11651;52.136;5.572;2022-07-12T06:20:09;8.57;;;6.32;;
22969;SDS011;11651;52.136;5.572;2022-07-12T06:22:35;5.90;;;5.40;;
22969;SDS011;11651;52.136;5.572;2022-07-12T06:25:01;9.55;;;5.75;;
22969;SDS011;11651;52.136;5.572;2022-07-12T06:27:26;7.63;;;6.47;;
22969;SDS011;11651;52.136;5.572;2022-07-12T06:29:52;6.32;;;5.72;;
22969;SDS011;11651;52.136;5.572;2022-07-12T06:32:17;6.55;;;5.97;;
22969;SDS011;11651;52.136;5.572;2022-07-12T06:34:43;8.60;;;6.22;;
22969;SDS011;11651;52.136;5.572;2022-07-12T06:37:09;6.15;;;5.55;;
22969;SDS011;11651;52.136;5.572;2022-07-12T06:39:37;7.65;;;6.50;;
22969;SDS011;11651;52.136;5.572;2022-07-12T06:42:03;8.02;;;5.95;;
22969;SDS011;11651;52.136;5.572;2022-07-12T06:44:30;5.93;;;5.47;;
22969;SDS011;11651;52.136;5.572;2022-07-12T06:46:56;6.63;;;6.10;;
22969;SDS011;11651;52.136;5.572;2022-07-12T06:49:22;6.60;;;6.00;;
22969;SDS011;11651;52.136;5.572;2022-07-12T06:51:47;6.22;;;5.72;;
22969;SDS011;11651;52.136;5.572;2022-07-12T06:54:13;6.20;;;5.70;;
22969;SDS011;11651;52.136;5.572;2022-07-12T06:56:39;6.50;;;5.70;;
22969;SDS011;11651;52.136;5.572;2022-07-12T06:59:04;5.57;;;5.03;;
22969;SDS011;11651;52.136;5.572;2022-07-12T07:01:30;5.22;;;4.57;;
22969;SDS011;11651;52.136;5.572;2022-07-12T07:03:55;6.43;;;5.15;;
22969;SDS011;11651;52.136;5.572;2022-07-12T07:06:21;5.75;;;5.25;;
22969;SDS011;11651;52.136;5.572;2022-07-12T07:08:46;6.90;;;4.82;;
22969;SDS011;11651;52.136;5.572;2022-07-12T07:11:12;5.55;;;4.97;;
22969;SDS011;11651;52.136;5.572;2022-07-12T07:13:38;8.80;;;5.32;;
22969;SDS011;11651;52.136;5.572;2022-07-12T07:16:03;5.22;;;4.47;;
22969;SDS011;11651;52.136;5.572;2022-07-12T07:18:30;7.38;;;5.22;;
22969;SDS011;11651;52.136;5.572;2022-07-12T07:20:55;6.47;;;4.95;;
22969;SDS011;11651;52.136;5.572;2022-07-12T07:23:21;6.80;;;4.88;;
22969;SDS011;11651;52.136;5.572;2022-07-12T07:25:47;5.95;;;5.28;;
22969;SDS011;11651;52.136;5.572;2022-07-12T07:28:13;4.85;;;4.50;;
22969;SDS011;11651;52.136;5.572;2022-07-12T07:30:38;6.80;;;6.13;;
22969;SDS011;11651;52.136;5.572;2022-07-12T07:33:19;7.13;;;5.95;;
22969;SDS011;11651;52.136;5.572;2022-07-12T07:35:46;4.85;;;4.35;;
22969;SDS011;11651;52.136;5.572;2022-07-12T07:38:12;7.10;;;6.57;;
22969;SDS011;11651;52.136;5.572;2022-07-12T07:40:38;7.38;;;6.22;;
22969;SDS011;11651;52.136;5.572;2022-07-12T07:43:04;5.70;;;5.30;;
22969;SDS011;11651;52.136;5.572;2022-07-12T07:45:29;6.78;;;6.20;;
22969;SDS011;11651;52.136;5.572;2022-07-12T07:47:55;7.60;;;7.00;;
22969;SDS011;11651;52.136;5.572;2022-07-12T07:50:20;7.93;;;6.95;;
22969;SDS011;11651;52.136;5.572;2022-07-12T07:52:46;5.78;;;5.25;;
22969;SDS011;11651;52.136;5.572;2022-07-12T07:55:13;7.25;;;6.43;;
22969;SDS011;11651;52.136;5.572;2022-07-12T07:57:39;6.75;;;6.05;;
22969;SDS011;11651;52.136;5.572;2022-07-12T08:00:05;7.03;;;6.53;;
22969;SDS011;11651;52.136;5.572;2022-07-12T08:02:31;5.63;;;5.13;;
22969;SDS011;11651;52.136;5.572;2022-07-12T08:04:56;6.25;;;5.75;;
22969;SDS011;11651;52.136;5.572;2022-07-12T08:07:22;5.78;;;5.20;;
22969;SDS011;11651;52.136;5.572;2022-07-12T08:09:48;4.88;;;4.47;;
22969;SDS011;11651;52.136;5.572;2022-07-12T08:12:13;6.00;;;5.50;;
22969;SDS011;11651;52.136;5.572;2022-07-12T08:14:39;6.38;;;5.60;;
22969;SDS011;11651;52.136;5.572;2022-07-12T08:17:04;7.68;;;5.88;;
22969;SDS011;11651;52.136;5.572;2022-07-12T08:19:33;6.05;;;4.13;;
22969;SDS011;11651;52.136;5.572;2022-07-12T08:21:58;6.40;;;5.78;;
22969;SDS011;11651;52.136;5.572;2022-07-12T08:24:24;5.70;;;5.20;;
22969;SDS011;11651;52.136;5.572;2022-07-12T08:26:50;4.55;;;4.15;;
22969;SDS011;11651;52.136;5.572;2022-07-12T08:29:15;5.38;;;4.97;;
22969;SDS011;11651;52.136;5.572;2022-07-12T08:31:41;5.32;;;4.40;;
22969;SDS011;11651;52.136;5.572;2022-07-12T08:34:07;5.45;;;4.80;;
22969;SDS011;11651;52.136;5.572;2022-07-12T08:36:33;5.30;;;4.18;;
22969;SDS011;11651;52.136;5.572;2022-07-12T08:39:01;6.43;;;5.22;;
22969;SDS011;11651;52.136;5.572;2022-07-12T08:41:27;4.57;;;3.90;;
22969;SDS011;11651;52.136;5.572;2022-07-12T08:43:54;4.93;;;4.43;;
22969;SDS011;11651;52.136;5.572;2022-07-12T08:46:20;5.25;;;4.72;;
22969;SDS011;11651;52.136;5.572;2022-07-12T08:48:46;5.72;;;5.25;;
22969;SDS011;11651;52.136;5.572;2022-07-12T08:51:12;5.15;;;4.65;;
22969;SDS011;11651;52.136;5.572;2022-07-12T08:53:39;4.32;;;3.78;;
22969;SDS011;11651;52.136;5.572;2022-07-12T08:56:05;4.65;;;4.15;;
22969;SDS011;11651;52.136;5.572;2022-07-12T08:58:32;4.50;;;4.10;;
22969;SDS011;11651;52.136;5.572;2022-07-12T09:00:58;3.92;;;3.15;;
22969;SDS011;11651;52.136;5.572;2022-07-12T09:03:25;3.83;;;3.53;;
22969;SDS011;11651;52.136;5.572;2022-07-12T09:05:54;4.15;;;3.70;;
22969;SDS011;11651;52.136;5.572;2022-07-12T09:08:31;3.53;;;3.22;;
22969;SDS011;11651;52.136;5.572;2022-07-12T09:11:01;4.88;;;3.15;;
22969;SDS011;11651;52.136;5.572;2022-07-12T09:16:13;4.35;;;3.67;;
22969;SDS011;11651;52.136;5.572;2022-07-12T09:18:40;4.53;;;3.45;;
22969;SDS011;11651;52.136;5.572;2022-07-12T09:21:07;4.75;;;3.30;;
22969;SDS011;11651;52.136;5.572;2022-07-12T09:23:33;4.07;;;3.67;;
22969;SDS011;11651;52.136;5.572;2022-07-12T09:25:58;3.40;;;3.10;;
22969;SDS011;11651;52.136;5.572;2022-07-12T09:28:25;2.05;;;1.90;;
22969;SDS011;11651;52.136;5.572;2022-07-12T09:30:52;4.72;;;2.10;;
22969;SDS011;11651;52.136;5.572;2022-07-12T09:33:19;3.10;;;2.40;;
22969;SDS011;11651;52.136;5.572;2022-07-12T09:36:05;3.03;;;2.80;;
22969;SDS011;11651;52.136;5.572;2022-07-12T09:38:31;3.63;;;2.80;;
22969;SDS011;11651;52.136;5.572;2022-07-12T09:40:58;3.28;;;2.97;;
22969;SDS011;11651;52.136;5.572;2022-07-12T09:43:25;2.33;;;2.22;;
22969;SDS011;11651;52.136;5.572;2022-07-12T09:45:52;3.00;;;2.78;;
22969;SDS011;11651;52.136;5.572;2022-07-12T09:48:19;2.80;;;2.60;;
22969;SDS011;11651;52.136;5.572;2022-07-12T09:50:47;3.90;;;2.00;;
22969;SDS011;11651;52.136;5.572;2022-07-12T09:53:15;2.13;;;1.92;;
22969;SDS011;11651;52.136;5.572;2022-07-12T09:55:53;3.83;;;2.50;;
22969;SDS011;11651;52.136;5.572;2022-07-12T09:59:05;2.85;;;2.50;;
22969;SDS011;11651;52.136;5.572;2022-07-12T10:01:10;5.38;;;2.72;;
22969;SDS011;11651;52.136;5.572;2022-07-12T10:03:37;4.30;;;2.30;;
22969;SDS011;11651;52.136;5.572;2022-07-12T10:06:16;2.40;;;2.20;;
22969;SDS011;11651;52.136;5.572;2022-07-12T10:08:48;2.08;;;1.88;;
22969;SDS011;11651;52.136;5.572;2022-07-12T10:11:14;2.92;;;2.75;;
22969;SDS011;11651;52.136;5.572;2022-07-12T10:13:40;7.07;;;2.53;;
22969;SDS011;11651;52.136;5.572;2022-07-12T10:16:09;5.07;;;2.75;;
22969;SDS011;11651;52.136;5.572;2022-07-12T10:18:38;2.30;;;2.10;;
22969;SDS011;11651;52.136;5.572;2022-07-12T10:21:17;3.15;;;2.17;;
22969;SDS011;11651;52.136;5.572;2022-07-12T10:23:48;2.25;;;1.67;;
22969;SDS011;11651;52.136;5.572;2022-07-12T10:28:59;2.65;;;2.38;;
22969;SDS011;11651;52.136;5.572;2022-07-12T10:31:30;1.50;;;1.40;;
22969;SDS011;11651;52.136;5.572;2022-07-12T10:34:09;1.70;;;1.50;;
22969;SDS011;11651;52.136;5.572;2022-07-12T10:39:24;2.70;;;2.50;;
22969;SDS011;11651;52.136;5.572;2022-07-12T10:44:40;1.70;;;1.60;;
22969;SDS011;11651;52.136;5.572;2022-07-12T10:47:09;2.20;;;1.48;;
22969;SDS011;11651;52.136;5.572;2022-07-12T10:49:38;1.88;;;1.70;;
22969;SDS011;11651;52.136;5.572;2022-07-12T10:52:12;2.00;;;1.90;;
22969;SDS011;11651;52.136;5.572;2022-07-12T10:54:43;3.35;;;1.40;;
22969;SDS011;11651;52.136;5.572;2022-07-12T10:57:38;3.33;;;3.03;;
22969;SDS011;11651;52.136;5.572;2022-07-12T11:00:06;2.90;;;2.70;;
22969;SDS011;11651;52.136;5.572;2022-07-12T11:02:34;2.75;;;2.55;;
22969;SDS011;11651;52.136;5.572;2022-07-12T11:05:03;5.88;;;2.08;;
22969;SDS011;11651;52.136;5.572;2022-07-12T11:07:31;1.95;;;1.73;;
22969;SDS011;11651;52.136;5.572;2022-07-12T11:09:57;1.88;;;1.77;;
22969;SDS011;11651;52.136;5.572;2022-07-12T11:12:29;3.22;;;2.92;;
22969;SDS011;11651;52.136;5.572;2022-07-12T11:14:56;3.25;;;2.80;;
22969;SDS011;11651;52.136;5.572;2022-07-12T11:17:27;4.32;;;2.15;;
22969;SDS011;11651;52.136;5.572;2022-07-12T11:22:35;6.68;;;3.72;;
22969;SDS011;11651;52.136;5.572;2022-07-12T11:25:09;3.88;;;3.50;;
22969;SDS011;11651;52.136;5.572;2022-07-12T11:27:36;3.80;;;3.50;;
22969;SDS011;11651;52.136;5.572;2022-07-12T11:30:04;2.50;;;2.15;;
22969;SDS011;11651;52.136;5.572;2022-07-12T11:32:34;2.72;;;2.53;;
22969;SDS011;11651;52.136;5.572;2022-07-12T11:35:04;2.53;;;2.33;;
22969;SDS011;11651;52.136;5.572;2022-07-12T11:37:52;3.70;;;2.70;;
22969;SDS011;11651;52.136;5.572;2022-07-12T11:40:27;3.42;;;2.10;;
22969;SDS011;11651;52.136;5.572;2022-07-12T11:42:57;2.65;;;2.45;;
22969;SDS011;11651;52.136;5.572;2022-07-12T11:45:24;3.13;;;2.92;;
22969;SDS011;11651;52.136;5.572;2022-07-12T11:47:54;2.85;;;2.65;;
22969;SDS011;11651;52.136;5.572;2022-07-12T11:50:21;3.03;;;2.60;;
22969;SDS011;11651;52.136;5.572;2022-07-12T11:52:47;6.40;;;3.65;;
22969;SDS011;11651;52.136;5.572;2022-07-12T11:55:13;4.00;;;2.70;;
22969;SDS011;11651;52.136;5.572;2022-07-12T11:57:39;3.08;;;2.85;;
22969;SDS011;11651;52.136;5.572;2022-07-12T12:00:18;5.88;;;2.42;;
22969;SDS011;11651;52.136;5.572;2022-07-12T12:02:50;2.50;;;2.30;;
22969;SDS011;11651;52.136;5.572;2022-07-12T12:05:19;2.78;;;2.20;;
22969;SDS011;11651;52.136;5.572;2022-07-12T12:07:46;2.25;;;2.05;;
22969;SDS011;11651;52.136;5.572;2022-07-12T12:10:18;2.03;;;1.90;;
22969;SDS011;11651;52.136;5.572;2022-07-12T12:12:53;2.20;;;1.60;;
22969;SDS011;11651;52.136;5.572;2022-07-12T12:17:52;3.35;;;1.20;;
22969;SDS011;11651;52.136;5.572;2022-07-12T12:20:23;1.02;;;1.00;;
22969;SDS011;11651;52.136;5.572;2022-07-12T12:22:54;2.17;;;1.10;;
22969;SDS011;11651;52.136;5.572;2022-07-12T12:25:25;2.33;;;1.02;;
22969;SDS011;11651;52.136;5.572;2022-07-12T12:28:01;2.10;;;1.60;;
22969;SDS011;11651;52.136;5.572;2022-07-12T12:30:34;2.53;;;2.15;;
22969;SDS011;11651;52.136;5.572;2022-07-12T12:33:12;3.88;;;2.15;;
22969;SDS011;11651;52.136;5.572;2022-07-12T12:35:38;2.83;;;2.20;;
22969;SDS011;11651;52.136;5.572;2022-07-12T12:38:11;3.15;;;2.10;;
22969;SDS011;11651;52.136;5.572;2022-07-12T12:40:40;2.92;;;2.00;;
22969;SDS011;11651;52.136;5.572;2022-07-12T12:43:19;1.83;;;1.70;;
22969;SDS011;11651;52.136;5.572;2022-07-12T12:45:48;2.15;;;1.80;;
22969;SDS011;11651;52.136;5.572;2022-07-12T12:48:22;2.17;;;1.95;;
22969;SDS011;11651;52.136;5.572;2022-07-12T12:50:49;2.75;;;1.70;;
22969;SDS011;11651;52.136;5.572;2022-07-12T12:53:21;3.33;;;2.00;;
22969;SDS011;11651;52.136;5.572;2022-07-12T12:55:49;3.33;;;1.75;;
22969;SDS011;11651;52.136;5.572;2022-07-12T12:58:16;2.10;;;2.00;;
22969;SDS011;11651;52.136;5.572;2022-07-12T13:00:44;2.60;;;2.28;;
22969;SDS011;11651;52.136;5.572;2022-07-12T13:03:12;2.72;;;1.95;;
22969;SDS011;11651;52.136;5.572;2022-07-12T13:05:39;2.00;;;1.80;;
22969;SDS011;11651;52.136;5.572;2022-07-12T13:08:06;1.90;;;1.80;;
22969;SDS011;11651;52.136;5.572;2022-07-12T13:10:33;1.95;;;1.60;;
22969;SDS011;11651;52.136;5.572;2022-07-12T13:12:59;2.55;;;1.90;;
22969;SDS011;11651;52.136;5.572;2022-07-12T13:15:27;2.42;;;2.22;;
22969;SDS011;11651;52.136;5.572;2022-07-12T13:17:53;1.65;;;1.55;;
22969;SDS011;11651;52.136;5.572;2022-07-12T13:20:22;1.60;;;1.50;;
22969;SDS011;11651;52.136;5.572;2022-07-12T13:22:48;1.88;;;1.77;;
22969;SDS011;11651;52.136;5.572;2022-07-12T13:25:14;4.22;;;2.20;;
22969;SDS011;11651;52.136;5.572;2022-07-12T13:27:43;2.78;;;2.13;;
22969;SDS011;11651;52.136;5.572;2022-07-12T13:30:11;1.90;;;1.80;;
22969;SDS011;11651;52.136;5.572;2022-07-12T13:32:37;4.70;;;2.03;;
22969;SDS011;11651;52.136;5.572;2022-07-12T13:35:04;3.03;;;1.52;;
22969;SDS011;11651;52.136;5.572;2022-07-12T13:37:31;2.42;;;1.70;;
22969;SDS011;11651;52.136;5.572;2022-07-12T13:39:58;4.18;;;1.63;;
22969;SDS011;11651;52.136;5.572;2022-07-12T13:42:39;2.92;;;1.38;;
22969;SDS011;11651;52.136;5.572;2022-07-12T13:45:19;1.40;;;1.30;;
22969;SDS011;11651;52.136;5.572;2022-07-12T13:47:46;1.80;;;1.33;;
22969;SDS011;11651;52.136;5.572;2022-07-12T13:50:13;1.40;;;1.30;;
22969;SDS011;11651;52.136;5.572;2022-07-12T13:52:40;1.98;;;1.30;;
22969;SDS011;11651;52.136;5.572;2022-07-12T13:55:10;2.35;;;1.40;;
22969;SDS011;11651;52.136;5.572;2022-07-12T13:57:38;1.92;;;1.42;;
22969;SDS011;11651;52.136;5.572;2022-07-12T14:00:05;3.38;;;1.75;;
22969;SDS011;11651;52.136;5.572;2022-07-12T14:02:38;2.60;;;1.95;;
22969;SDS011;11651;52.136;5.572;2022-07-12T14:05:06;1.40;;;1.30;;
22969;SDS011;11651;52.136;5.572;2022-07-12T14:07:33;1.88;;;1.50;;
22969;SDS011;11651;52.136;5.572;2022-07-12T14:09:59;2.55;;;1.45;;
22969;SDS011;11651;52.136;5.572;2022-07-12T14:12:25;1.83;;;1.30;;
22969;SDS011;11651;52.136;5.572;2022-07-12T14:14:52;5.22;;;1.15;;
22969;SDS011;11651;52.136;5.572;2022-07-12T14:17:39;2.97;;;1.50;;
22969;SDS011;11651;52.136;5.572;2022-07-12T14:20:10;2.72;;;1.35;;
22969;SDS011;11651;52.136;5.572;2022-07-12T14:22:40;2.47;;;1.40;;
22969;SDS011;11651;52.136;5.572;2022-07-12T14:25:06;4.43;;;1.63;;
22969;SDS011;11651;52.136;5.572;2022-07-12T14:27:36;3.80;;;1.75;;
22969;SDS011;11651;52.136;5.572;2022-07-12T14:30:03;2.03;;;1.60;;
22969;SDS011;11651;52.136;5.572;2022-07-12T14:32:31;3.95;;;1.70;;
22969;SDS011;11651;52.136;5.572;2022-07-12T14:34:56;2.03;;;1.85;;
22969;SDS011;11651;52.136;5.572;2022-07-12T14:37:22;1.60;;;1.48;;
22969;SDS011;11651;52.136;5.572;2022-07-12T14:39:48;4.07;;;1.92;;
22969;SDS011;11651;52.136;5.572;2022-07-12T14:42:14;2.33;;;1.92;;
22969;SDS011;11651;52.136;5.572;2022-07-12T14:44:40;6.63;;;2.17;;
22969;SDS011;11651;52.136;5.572;2022-07-12T14:47:06;1.50;;;1.40;;
22969;SDS011;11651;52.136;5.572;2022-07-12T14:49:32;2.17;;;1.92;;
22969;SDS011;11651;52.136;5.572;2022-07-12T14:51:58;3.05;;;2.20;;
22969;SDS011;11651;52.136;5.572;2022-07-12T14:54:23;2.72;;;1.50;;
22969;SDS011;11651;52.136;5.572;2022-07-12T14:56:49;1.50;;;1.40;;
22969;SDS011;11651;52.136;5.572;2022-07-12T14:59:15;1.60;;;1.45;;
22969;SDS011;11651;52.136;5.572;2022-07-12T15:01:40;1.80;;;1.30;;
22969;SDS011;11651;52.136;5.572;2022-07-12T15:04:06;2.35;;;1.30;;
22969;SDS011;11651;52.136;5.572;2022-07-12T15:06:32;3.25;;;1.50;;